Time;durP1;ratioP1;P1;durP2;ratioP2;P2;SDS_P1;SDS_P2;PMS_P1;PMS_P2;Temp;Humidity;BMP_temperature;BMP_pressure;BME280_temperature;BME280_humidity;BME280_pressure;Samples;Min_cycle;Max_cycle;Signal;HPM_P1;HPM_P2
2022/07/10 00:01:04;;;;;;;5.83;3.20;;;;;;;17.76;67.24;99347.16;5014980;28;20224;-49
2022/07/10 00:03:31;;;;;;;3.87;3.07;;;;;;;17.74;67.41;99343.88;5014549;28;20264;-50
2022/07/10 00:05:59;;;;;;;3.97;3.23;;;;;;;17.75;67.92;99347.31;5014821;28;20207;-50
2022/07/10 00:08:25;;;;;;;5.30;3.00;;;;;;;17.74;67.23;99343.88;5025116;28;20197;-50
2022/07/10 00:10:53;;;;;;;5.73;3.03;;;;;;;17.66;68.62;99336.81;5035580;28;20539;-50
2022/07/10 00:13:20;;;;;;;3.53;3.03;;;;;;;17.63;68.33;99346.94;5034591;28;20217;-50
2022/07/10 00:15:49;;;;;;;5.20;3.60;;;;;;;17.60;68.99;99337.53;5034955;28;20192;-50
2022/07/10 00:18:17;;;;;;;3.63;3.17;;;;;;;17.63;68.45;99344.31;5035147;28;20198;-50
2022/07/10 00:20:43;;;;;;;3.13;2.80;;;;;;;17.66;69.18;99346.59;5016967;28;20198;-50
2022/07/10 00:23:10;;;;;;;3.17;2.90;;;;;;;17.68;69.85;99345.38;5034755;28;20235;-50
2022/07/10 00:25:37;;;;;;;3.80;3.30;;;;;;;17.64;69.69;99344.09;5034760;28;20200;-50
2022/07/10 00:28:05;;;;;;;5.20;2.90;;;;;;;17.66;70.08;99346.59;5034907;28;20194;-50
2022/07/10 00:30:31;;;;;;;3.63;3.33;;;;;;;17.67;69.71;99338.47;5034843;28;20193;-50
2022/07/10 00:33:00;;;;;;;4.47;3.13;;;;;;;17.70;69.80;99353.16;5034382;28;20289;-50
2022/07/10 00:35:27;;;;;;;4.27;3.23;;;;;;;17.73;70.18;99344.88;5034816;28;20179;-50
2022/07/10 00:37:53;;;;;;;3.70;3.35;;;;;;;17.74;69.17;99340.38;5033772;28;20429;-50
2022/07/10 00:40:21;;;;;;;3.40;2.93;;;;;;;17.73;69.82;99344.88;5034449;28;20235;-50
2022/07/10 00:42:48;;;;;;;4.97;3.40;;;;;;;17.72;69.66;99340.59;5034274;28;20266;-50
2022/07/10 00:45:15;;;;;;;4.23;3.83;;;;;;;17.66;70.23;99336.81;5034482;28;20202;-50
2022/07/10 00:47:42;;;;;;;5.20;3.33;;;;;;;17.60;70.44;99326.19;5034478;28;20188;-49
2022/07/10 00:50:12;;;;;;;3.97;3.03;;;;;;;17.50;70.46;99329.06;5034491;28;20187;-50
2022/07/10 00:52:39;;;;;;;3.77;3.20;;;;;;;17.41;70.50;99318.59;5034075;28;20226;-50
2022/07/10 00:55:07;;;;;;;3.80;3.50;;;;;;;17.35;71.36;99319.31;5016177;28;20532;-50
2022/07/10 00:57:34;;;;;;;4.27;3.33;;;;;;;17.22;71.77;99313.81;5013422;28;20199;-51
2022/07/10 01:00:02;;;;;;;4.60;3.90;;;;;;;17.09;72.15;99315.22;5014378;28;20234;-50
2022/07/10 01:02:28;;;;;;;7.00;3.83;;;;;;;17.00;72.44;99303.09;5013805;28;20284;-50
2022/07/10 01:04:57;;;;;;;3.83;3.50;;;;;;;16.93;72.53;99305.59;5014171;28;20227;-50
2022/07/10 01:07:26;;;;;;;6.57;3.97;;;;;;;16.95;72.92;99308.03;5022065;28;20266;-50
2022/07/10 01:09:53;;;;;;;4.20;3.63;;;;;;;16.93;72.77;99307.38;5014168;28;20200;-50
2022/07/10 01:12:21;;;;;;;4.50;3.47;;;;;;;16.94;72.87;99309.88;4995986;28;20218;-50
2022/07/10 01:14:49;;;;;;;4.30;3.57;;;;;;;16.93;73.86;99304.75;5013971;28;20587;-50
2022/07/10 01:17:17;;;;;;;3.47;3.17;;;;;;;16.95;73.44;99308.88;5013993;28;20249;-50
2022/07/10 01:19:44;;;;;;;3.40;3.10;;;;;;;16.94;74.12;99311.66;5013901;28;20278;-50
2022/07/10 01:22:12;;;;;;;5.57;3.97;;;;;;;16.92;74.61;99309.22;4995637;28;20214;-50
2022/07/10 01:24:39;;;;;;;4.10;3.37;;;;;;;16.92;74.29;99313.66;5005865;28;20196;-50
2022/07/10 01:27:08;;;;;;;4.03;3.63;;;;;;;16.95;73.94;99318.56;5013578;28;20273;-50
2022/07/10 01:29:35;;;;;;;3.97;3.67;;;;;;;16.95;74.96;99319.41;5013642;28;20282;-50
2022/07/10 01:32:02;;;;;;;3.90;3.50;;;;;;;17.00;74.12;99325.97;5013955;28;20234;-50
2022/07/10 01:34:29;;;;;;;6.87;3.50;;;;;;;17.03;74.77;99329.09;4995686;28;20210;-50
2022/07/10 01:36:56;;;;;;;4.73;3.33;;;;;;;17.10;75.07;99321.28;5013586;28;20194;-51
2022/07/10 01:39:27;;;;;;;4.20;3.33;;;;;;;17.13;74.76;99326.22;4997150;28;20195;-50
2022/07/10 01:41:54;;;;;;;3.73;3.33;;;;;;;17.19;74.57;99330.78;5024839;28;20220;-50
2022/07/10 01:44:21;;;;;;;5.83;3.20;;;;;;;17.22;74.40;99338.34;5033389;28;20193;-50
2022/07/10 01:46:49;;;;;;;7.77;3.80;;;;;;;17.27;74.11;99327.28;5033364;28;20675;-50
2022/07/10 01:49:16;;;;;;;5.60;3.70;;;;;;;17.28;75.01;99334.22;5033332;28;20198;-50
2022/07/10 01:51:44;;;;;;;7.37;3.80;;;;;;;17.35;74.45;99329.03;5033270;28;20182;-50
2022/07/10 01:54:11;;;;;;;4.60;3.57;;;;;;;17.36;73.62;99331.50;5032520;28;20209;-50
2022/07/10 01:56:39;;;;;;;3.67;3.37;;;;;;;17.37;74.00;99337.59;5033196;28;20666;-50
2022/07/10 01:59:07;;;;;;;6.10;4.03;;;;;;;17.37;73.37;99329.66;5032926;28;20193;-50
2022/07/10 02:01:34;;;;;;;6.03;4.10;;;;;;;17.38;73.99;99328.66;5031732;28;20288;-50
2022/07/10 02:07:04;;;;;;;8.10;5.03;;;;;;;17.68;73.37;99336.66;5031917;28;20217;-50
2022/07/10 02:09:31;;;;;;;7.43;5.67;;;;;;;17.79;72.74;99333.59;5032383;28;20194;-50
2022/07/10 02:12:00;;;;;;;10.03;5.27;;;;;;;17.81;73.03;99338.69;5031993;28;20194;-49
2022/07/10 02:14:27;;;;;;;5.80;4.97;;;;;;;17.87;72.68;99339.78;5032736;28;20745;-50
2022/07/10 02:16:55;;;;;;;17.90;6.47;;;;;;;17.95;71.83;99337.06;5032250;28;20186;-50
2022/07/10 02:19:40;;;;;;;6.67;5.23;;;;;;;17.97;71.84;99345.63;5033188;28;20207;-49
2022/07/10 02:22:07;;;;;;;7.27;4.60;;;;;;;17.90;70.80;99347.34;5014555;28;20566;-50
2022/07/10 02:24:35;;;;;;;7.77;4.53;;;;;;;17.80;71.40;99348.44;5032663;28;20589;-50
2022/07/10 02:27:04;;;;;;;5.13;3.83;;;;;;;17.70;71.31;99359.22;5014924;28;20213;-50
2022/07/10 02:29:31;;;;;;;8.23;4.13;;;;;;;17.69;70.51;99354.16;5032757;28;20597;-50
2022/07/10 02:31:58;;;;;;;4.53;3.67;;;;;;;17.65;70.12;99350.22;5032366;28;20185;-50
2022/07/10 02:34:25;;;;;;;6.27;4.03;;;;;;;17.51;70.70;99349.16;5032616;28;20194;-50
2022/07/10 02:36:52;;;;;;;8.27;4.10;;;;;;;17.55;70.17;99355.72;5032488;28;20193;-50
2022/07/10 02:39:22;;;;;;;6.07;3.50;;;;;;;17.49;69.92;99357.28;5032438;28;21302;-51
2022/07/10 02:41:48;;;;;;;5.30;3.30;;;;;;;17.41;70.49;99347.63;5032520;28;20185;-50
2022/07/10 02:44:17;;;;;;;5.33;3.00;;;;;;;17.38;70.32;99347.97;5032148;28;20264;-50
2022/07/10 02:46:44;;;;;;;5.73;3.73;;;;;;;17.35;70.12;99353.59;5032403;28;20575;-50
2022/07/10 02:49:11;;;;;;;6.67;3.70;;;;;;;17.35;69.87;99356.25;5032501;28;20190;-50
2022/07/10 02:51:38;;;;;;;6.23;3.20;;;;;;;17.36;69.90;99357.06;5032401;28;20277;-51
2022/07/10 02:54:05;;;;;;;4.47;3.30;;;;;;;17.27;69.99;99351.03;5014210;28;20216;-49
2022/07/10 02:56:32;;;;;;;4.33;2.83;;;;;;;17.31;70.20;99349.69;5032465;28;20192;-50
2022/07/10 02:58:59;;;;;;;5.17;3.00;;;;;;;17.28;70.39;99355.31;5032408;28;20185;-50
2022/07/10 03:01:27;;;;;;;6.00;3.40;;;;;;;17.22;70.18;99356.81;5032452;28;20188;-50
2022/07/10 03:03:54;;;;;;;4.53;3.37;;;;;;;17.17;69.99;99343.34;5031970;28;20202;-50
2022/07/10 03:06:21;;;;;;;9.17;3.47;;;;;;;17.08;70.69;99344.38;5032271;28;20241;-50
2022/07/10 03:08:48;;;;;;;5.57;3.17;;;;;;;16.91;71.31;99339.22;5032443;28;20188;-50
2022/07/10 03:11:15;;;;;;;5.10;3.70;;;;;;;16.81;72.06;99334.16;5014467;28;20196;-50
2022/07/10 03:13:43;;;;;;;6.47;4.53;;;;;;;16.76;71.81;99336.47;5023740;28;20217;-50
2022/07/10 03:16:09;;;;;;;10.93;3.37;;;;;;;16.58;72.27;99336.75;5012344;28;20535;-50
2022/07/10 03:18:38;;;;;;;7.30;3.40;;;;;;;16.51;73.20;99339.25;4994611;28;20202;-50
2022/07/10 03:21:05;;;;;;;6.17;3.50;;;;;;;16.39;73.42;99340.63;5016177;28;20876;-50
2022/07/10 03:23:32;;;;;;;7.30;4.07;;;;;;;16.38;73.49;99339.81;5015862;28;20297;-50
2022/07/10 03:25:59;;;;;;;9.10;3.87;;;;;;;16.35;73.73;99342.78;5016308;28;20406;-50
2022/07/10 03:28:26;;;;;;;4.67;3.30;;;;;;;16.29;73.91;99353.19;5016002;28;20196;-50
2022/07/10 03:30:53;;;;;;;4.43;3.27;;;;;;;16.30;73.79;99358.28;5016134;28;20186;-50
2022/07/10 03:33:20;;;;;;;4.97;3.20;;;;;;;16.22;73.58;99356.50;5015654;28;20239;-50
2022/07/10 03:35:48;;;;;;;7.10;3.70;;;;;;;16.19;73.69;99356.00;5016027;28;20640;-49
2022/07/10 03:38:16;;;;;;;4.20;3.23;;;;;;;16.14;73.91;99361.78;4998243;28;20195;-50
2022/07/10 03:40:45;;;;;;;6.13;2.77;;;;;;;16.12;74.46;99361.13;5006097;28;20200;-49
2022/07/10 03:43:12;;;;;;;9.83;3.53;;;;;;;16.17;73.91;99350.09;5015756;28;20211;-49
2022/07/10 03:45:39;;;;;;;4.03;2.90;;;;;;;16.10;74.29;99355.22;5015987;28;20199;-50
2022/07/10 03:48:06;;;;;;;4.63;3.23;;;;;;;16.04;74.45;99361.16;5015962;28;20246;-49
2022/07/10 03:50:34;;;;;;;6.97;2.80;;;;;;;16.02;74.80;99357.88;5015927;28;20195;-50
2022/07/10 03:53:02;;;;;;;6.17;3.17;;;;;;;16.01;74.56;99358.84;5015650;28;20344;-50
2022/07/10 03:55:29;;;;;;;4.77;3.30;;;;;;;16.05;74.29;99366.25;5015689;28;20653;-50
2022/07/10 03:57:57;;;;;;;6.07;2.93;;;;;;;16.04;74.11;99361.97;5015898;28;20231;-50
2022/07/10 04:00:25;;;;;;;7.67;3.10;;;;;;;16.03;74.12;99357.69;5015727;28;20197;-50
2022/07/10 04:02:57;;;;;;;6.80;3.20;;;;;;;16.16;73.39;99364.25;5015328;28;20228;-52
2022/07/10 04:05:25;;;;;;;5.30;2.53;;;;;;;16.07;73.79;99363.44;5015691;28;20240;-49
2022/07/10 04:07:52;;;;;;;3.87;2.93;;;;;;;16.08;74.06;99357.19;5015548;28;20219;-49
2022/07/10 04:10:21;;;;;;;6.27;2.97;;;;;;;16.09;73.51;99354.38;5015603;28;20186;-50
2022/07/10 04:12:48;;;;;;;5.87;2.90;;;;;;;16.08;73.53;99355.38;5015176;28;20212;-50
2022/07/10 04:15:16;;;;;;;4.50;2.60;;;;;;;15.99;73.73;99360.84;5015516;28;20191;-50
2022/07/10 04:17:43;;;;;;;7.73;2.73;;;;;;;16.01;73.74;99364.13;5015441;28;20255;-50
2022/07/10 04:20:11;;;;;;;8.03;3.10;;;;;;;16.02;73.41;99353.41;5015507;28;20189;-50
2022/07/10 04:22:38;;;;;;;7.27;3.00;;;;;;;15.94;73.93;99353.44;5014974;28;20204;-49
2022/07/10 04:25:06;;;;;;;4.97;3.13;;;;;;;15.91;74.16;99354.59;5015084;28;20188;-50
2022/07/10 04:27:34;;;;;;;9.17;2.83;;;;;;;15.91;74.37;99359.03;5015101;28;20213;-49
2022/07/10 04:30:01;;;;;;;3.97;2.40;;;;;;;15.90;74.45;99360.84;5014870;28;20232;-50
2022/07/10 04:32:28;;;;;;;3.20;2.50;;;;;;;15.95;73.95;99365.59;5014176;28;20448;-50
2022/07/10 04:34:55;;;;;;;8.33;2.43;;;;;;;15.93;73.87;99362.31;5015118;28;20213;-50
2022/07/10 04:37:23;;;;;;;6.30;2.77;;;;;;;15.80;75.04;99362.81;4997357;28;20224;-50
2022/07/10 04:39:50;;;;;;;3.47;2.40;;;;;;;15.76;74.94;99367.59;5014772;28;20199;-50
2022/07/10 04:42:17;;;;;;;9.90;2.43;;;;;;;15.70;75.46;99368.25;5014807;28;20209;-50
2022/07/10 04:44:46;;;;;;;3.80;2.40;;;;;;;15.69;75.05;99365.78;4997132;28;20724;-50
2022/07/10 04:47:13;;;;;;;7.53;2.43;;;;;;;15.75;74.74;99365.94;5014763;28;20208;-50
2022/07/10 04:49:40;;;;;;;4.83;2.40;;;;;;;15.65;75.25;99365.28;5015007;28;20189;-50
2022/07/10 04:52:07;;;;;;;3.43;2.40;;;;;;;15.60;75.55;99368.41;5014227;28;20274;-50
2022/07/10 04:54:34;;;;;;;2.73;2.40;;;;;;;15.62;75.26;99373.53;5014612;28;20236;-50
2022/07/10 04:57:02;;;;;;;5.40;2.73;;;;;;;15.60;75.17;99370.22;4997377;28;20499;-52
2022/07/10 04:59:28;;;;;;;8.73;3.03;;;;;;;15.67;75.13;99368.59;5014598;28;20257;-52
2022/07/10 05:01:57;;;;;;;4.77;2.50;;;;;;;15.64;75.07;99374.19;4996488;28;20207;-52
2022/07/10 05:04:25;;;;;;;3.73;2.27;;;;;;;15.61;75.03;99383.22;5014523;28;20220;-50
2022/07/10 05:06:52;;;;;;;3.63;2.50;;;;;;;15.61;75.63;99379.78;5014443;28;20200;-50
2022/07/10 05:09:19;;;;;;;5.73;2.20;;;;;;;15.63;75.13;99378.59;5014507;28;20196;-50
2022/07/10 05:11:47;;;;;;;4.57;2.20;;;;;;;15.72;75.27;99381.22;5014275;28;20194;-49
2022/07/10 05:14:16;;;;;;;5.23;2.30;;;;;;;15.78;75.01;99380.56;5013900;28;20211;-50
2022/07/10 05:16:43;;;;;;;11.03;2.40;;;;;;;15.83;74.34;99382.72;5014267;28;20200;-49
2022/07/10 05:19:12;;;;;;;5.93;2.37;;;;;;;15.86;73.47;99382.41;5014268;28;20277;-50
2022/07/10 05:21:38;;;;;;;6.07;2.20;;;;;;;15.85;73.84;99384.19;5014296;28;20185;-49
2022/07/10 05:24:06;;;;;;;5.73;2.10;;;;;;;16.03;72.99;99388.47;5013745;28;20204;-50
2022/07/10 05:26:33;;;;;;;6.13;2.30;;;;;;;16.14;72.14;99389.91;5014152;28;20553;-50
2022/07/10 05:29:00;;;;;;;7.33;2.60;;;;;;;16.20;71.94;99394.53;5014110;28;20195;-50
2022/07/10 05:31:27;;;;;;;7.77;2.53;;;;;;;16.26;72.30;99393.03;5014168;28;20265;-49
2022/07/10 05:33:54;;;;;;;4.53;2.60;;;;;;;16.08;71.97;99397.50;5013768;28;20251;-49
2022/07/10 05:36:23;;;;;;;4.67;2.30;;;;;;;16.22;71.80;99392.53;5013823;28;20759;-49
2022/07/10 05:38:50;;;;;;;10.53;2.60;;;;;;;16.29;71.23;99395.34;5014060;28;20177;-49
2022/07/10 05:41:17;;;;;;;4.47;2.40;;;;;;;16.36;70.46;99389.22;5014092;28;20537;-50
2022/07/10 05:43:43;;;;;;;5.10;3.00;;;;;;;16.35;70.74;99398.09;5013299;28;20216;-50
2022/07/10 05:46:11;;;;;;;3.43;2.47;;;;;;;16.40;70.35;99388.88;5013683;28;20267;-49
2022/07/10 05:48:39;;;;;;;3.87;2.37;;;;;;;16.37;70.39;99385.59;5013497;28;20235;-49
2022/07/10 05:51:06;;;;;;;10.90;2.50;;;;;;;16.46;70.13;99388.19;5013489;28;20239;-50
2022/07/10 05:53:34;;;;;;;3.23;2.47;;;;;;;16.84;68.45;99380.47;5013181;28;20224;-50
2022/07/10 05:56:02;;;;;;;4.70;2.63;;;;;;;16.93;67.80;99378.59;4991532;28;20256;-50
2022/07/10 05:58:30;;;;;;;5.40;2.50;;;;;;;17.05;67.74;99394.84;5020561;28;20199;-50
2022/07/10 06:00:57;;;;;;;4.83;2.20;;;;;;;17.42;66.70;99393.28;5019169;28;20275;-50
2022/07/10 06:03:24;;;;;;;6.77;2.80;;;;;;;17.39;65.31;99401.56;5014799;28;20218;-51
2022/07/10 06:05:51;;;;;;;5.60;2.67;;;;;;;17.41;65.06;99408.31;5013237;28;20720;-50
2022/07/10 06:08:18;;;;;;;8.57;2.30;;;;;;;17.33;64.70;99403.09;5013049;28;20213;-50
2022/07/10 06:10:46;;;;;;;8.13;2.30;;;;;;;17.40;64.85;99405.84;5013347;28;20547;-52
2022/07/10 06:13:14;;;;;;;6.07;2.50;;;;;;;17.45;63.63;99403.50;5020978;28;20259;-51
2022/07/10 06:15:41;;;;;;;5.00;2.17;;;;;;;17.51;64.26;99410.72;5016836;28;20192;-50
2022/07/10 06:18:08;;;;;;;4.13;2.27;;;;;;;17.91;62.70;99412.38;4999356;28;20288;-51
2022/07/10 06:20:36;;;;;;;5.93;2.20;;;;;;;17.93;62.58;99423.59;5021112;28;20198;-50
2022/07/10 06:23:03;;;;;;;3.43;1.97;;;;;;;17.77;62.97;99422.72;5019514;28;20208;-52
2022/07/10 06:25:31;;;;;;;5.10;2.10;;;;;;;17.62;63.45;99424.50;5021143;28;20208;-50
2022/07/10 06:27:59;;;;;;;4.57;2.10;;;;;;;17.73;63.49;99425.88;5013319;28;20209;-51
2022/07/10 06:30:26;;;;;;;5.67;2.30;;;;;;;17.71;63.47;99424.25;5020673;28;20191;-49
2022/07/10 06:32:53;;;;;;;9.17;2.60;;;;;;;17.54;63.74;99430.63;5008216;28;20225;-49
2022/07/10 06:35:20;;;;;;;4.50;2.40;;;;;;;17.68;63.23;99437.78;5006150;28;20213;-52
2022/07/10 06:37:47;;;;;;;5.47;1.93;;;;;;;17.51;64.14;99444.19;5012666;28;20249;-51
2022/07/10 06:40:15;;;;;;;4.27;2.40;;;;;;;17.45;63.97;99440.44;5012102;28;20213;-49
2022/07/10 06:42:41;;;;;;;4.17;2.20;;;;;;;17.02;65.95;99440.03;5011824;28;20751;-50
2022/07/10 06:45:13;;;;;;;6.27;2.50;;;;;;;17.11;66.28;99434.56;5012446;28;20588;-50
2022/07/10 06:47:59;;;;;;;3.40;1.90;;;;;;;17.21;64.91;99444.06;5012192;28;20251;-50
2022/07/10 06:50:27;;;;;;;6.07;2.23;;;;;;;17.55;64.36;99442.84;5006606;28;20189;-49
2022/07/10 06:52:55;;;;;;;6.20;2.17;;;;;;;17.91;62.56;99449.34;5011371;28;20216;-49
2022/07/10 06:55:22;;;;;;;6.73;2.50;;;;;;;17.55;63.73;99442.84;5010479;28;20716;-50
2022/07/10 06:57:49;;;;;;;5.13;2.10;;;;;;;17.54;63.16;99443.84;5011459;28;20535;-50
2022/07/10 07:00:18;;;;;;;9.47;2.50;;;;;;;17.52;62.66;99446.66;5011162;28;20195;-49
2022/07/10 07:02:46;;;;;;;6.33;2.20;;;;;;;17.58;63.18;99445.13;5009562;28;20225;-50
2022/07/10 07:05:13;;;;;;;3.80;2.10;;;;;;;17.51;63.09;99447.66;5008574;28;20685;-50
2022/07/10 07:07:40;;;;;;;4.10;2.17;;;;;;;17.22;63.15;99446.53;5005648;28;20217;-51
2022/07/10 07:10:09;;;;;;;4.07;2.50;;;;;;;17.31;63.24;99451.75;5009796;28;20193;-47
2022/07/10 07:12:55;;;;;;;5.10;2.40;;;;;;;17.31;63.35;99452.59;4998096;28;20280;-49
2022/07/10 07:15:24;;;;;;;6.63;2.30;;;;;;;17.65;62.46;99456.63;4996800;28;20235;-49
2022/07/10 07:18:11;;;;;;;6.20;2.50;;;;;;;17.17;63.19;99459.41;4996582;28;20264;-49
2022/07/10 07:23:24;;;;;;;6.13;2.13;;;;;;;17.68;62.09;99466.03;5019834;28;20578;-50
2022/07/10 07:25:51;;;;;;;5.47;2.77;;;;;;;17.34;62.88;99462.78;5031369;28;20189;-49
2022/07/10 07:28:20;;;;;;;3.63;2.17;;;;;;;17.44;63.67;99454.63;5032026;28;20200;-51
2022/07/10 07:30:50;;;;;;;6.30;2.20;;;;;;;17.21;62.64;99455.44;5007012;28;20194;-50
2022/07/10 07:33:18;;;;;;;8.10;2.37;;;;;;;17.68;61.78;99460.75;5012993;28;20276;-50
2022/07/10 07:35:46;;;;;;;4.03;2.23;;;;;;;17.67;61.86;99454.63;4999400;28;20606;-49
2022/07/10 07:38:13;;;;;;;4.87;2.30;;;;;;;17.66;60.86;99460.09;5002148;28;20198;-49
2022/07/10 07:40:41;;;;;;;5.13;2.40;;;;;;;17.64;60.19;99460.25;5012443;28;20197;-49
2022/07/10 07:43:08;;;;;;;5.57;2.17;;;;;;;17.78;60.03;99456.06;5017984;28;20228;-49
2022/07/10 07:45:36;;;;;;;5.43;2.53;;;;;;;17.33;61.40;99460.31;5022953;28;20188;-49
2022/07/10 07:48:04;;;;;;;6.20;1.93;;;;;;;17.38;61.35;99453.53;5031510;28;20200;-48
2022/07/10 07:50:33;;;;;;;3.90;2.17;;;;;;;17.54;61.14;99454.41;5013870;28;20200;-48
2022/07/10 07:53:01;;;;;;;4.40;2.20;;;;;;;17.64;61.50;99456.81;5031597;28;20633;-49
2022/07/10 07:55:28;;;;;;;7.70;2.27;;;;;;;17.93;59.94;99452.63;5031612;28;20665;-48
2022/07/10 07:57:57;;;;;;;3.87;2.07;;;;;;;17.83;60.28;99452.88;5031575;28;20198;-51
2022/07/10 08:00:25;;;;;;;6.53;2.50;;;;;;;18.27;59.01;99456.63;5031552;28;20218;-49
2022/07/10 08:02:53;;;;;;;5.97;2.37;;;;;;;18.48;58.15;99455.94;5031068;28;20225;-48
2022/07/10 08:05:23;;;;;;;8.17;3.03;;;;;;;18.25;58.37;99450.69;5032695;28;20193;-49
2022/07/10 08:07:52;;;;;;;4.90;2.07;;;;;;;17.83;60.11;99442.31;5035034;28;20210;-48
2022/07/10 08:10:21;;;;;;;3.87;2.40;;;;;;;17.52;60.02;99440.56;5034757;28;20654;-49
2022/07/10 08:12:48;;;;;;;3.57;2.57;;;;;;;17.63;60.47;99441.97;5034594;28;20205;-49
2022/07/10 08:15:17;;;;;;;9.90;2.97;;;;;;;17.40;61.29;99446.28;5034951;28;20689;-48
2022/07/10 08:17:48;;;;;;;9.40;2.43;;;;;;;17.35;61.69;99448.59;5034984;28;20189;-48
2022/07/10 08:20:15;;;;;;;6.10;2.60;;;;;;;17.48;61.53;99439.28;5034826;28;20189;-49
2022/07/10 08:22:48;;;;;;;6.17;2.80;;;;;;;17.66;61.04;99444.25;5034539;28;20212;-48
2022/07/10 08:25:15;;;;;;;4.73;2.30;;;;;;;17.45;61.68;99443.09;5034914;28;20238;-48
2022/07/10 08:27:43;;;;;;;3.23;2.60;;;;;;;17.82;59.91;99453.88;5034668;28;20591;-49
2022/07/10 08:30:11;;;;;;;4.97;2.47;;;;;;;18.31;58.04;99455.25;5034932;28;20188;-49
2022/07/10 08:32:39;;;;;;;5.63;2.17;;;;;;;18.82;56.66;99449.25;5034427;28;20588;-49
2022/07/10 08:35:08;;;;;;;6.00;2.87;;;;;;;18.72;54.89;99454.00;5034647;28;20633;-49
2022/07/10 08:37:39;;;;;;;6.53;2.50;;;;;;;18.68;57.13;99458.00;5034764;28;20217;-48
2022/07/10 08:40:10;;;;;;;7.63;2.30;;;;;;;18.56;56.95;99447.88;5034406;28;20195;-49
2022/07/10 08:42:38;;;;;;;3.97;2.30;;;;;;;18.85;56.20;99450.72;5034429;28;20211;-48
2022/07/10 08:45:06;;;;;;;4.40;2.40;;;;;;;18.74;56.25;99455.47;5034726;28;20187;-49
2022/07/10 08:47:35;;;;;;;7.43;2.83;;;;;;;18.91;55.98;99455.25;5034740;28;20187;-49
2022/07/10 08:50:03;;;;;;;5.33;2.50;;;;;;;18.95;55.29;99453.88;5034456;28;20194;-51
2022/07/10 08:52:35;;;;;;;3.87;2.20;;;;;;;19.34;55.04;99449.25;5033887;28;20579;-51
2022/07/10 08:55:02;;;;;;;6.03;2.60;;;;;;;19.63;53.83;99455.41;5016784;28;20214;-51
2022/07/10 08:57:31;;;;;;;5.40;2.70;;;;;;;19.05;53.93;99455.47;5034185;28;20263;-48
2022/07/10 08:59:59;;;;;;;5.17;2.30;;;;;;;19.26;53.61;99457.31;5034245;28;20269;-51
2022/07/10 09:02:26;;;;;;;4.07;2.10;;;;;;;19.08;55.15;99455.88;5033738;28;20568;-49
2022/07/10 09:04:53;;;;;;;5.53;2.40;;;;;;;19.06;54.38;99451.81;5034033;28;20191;-49
2022/07/10 09:07:22;;;;;;;4.30;2.10;;;;;;;18.56;55.57;99442.59;5033109;28;20575;-49
2022/07/10 09:09:54;;;;;;;5.43;2.20;;;;;;;18.51;56.29;99442.34;5032941;28;20214;-49
2022/07/10 09:12:23;;;;;;;4.40;2.03;;;;;;;18.36;56.26;99446.81;5032794;28;20253;-48
2022/07/10 09:14:52;;;;;;;5.63;2.37;;;;;;;17.91;57.46;99441.44;5033917;28;20190;-49
2022/07/10 09:17:21;;;;;;;5.23;2.53;;;;;;;18.06;57.47;99444.94;5033156;28;20198;-49
2022/07/10 09:19:47;;;;;;;4.17;2.70;;;;;;;17.81;57.21;99439.84;5033838;28;20184;-49
2022/07/10 09:22:15;;;;;;;5.77;2.60;;;;;;;18.03;56.95;99439.19;5032951;28;20292;-48
2022/07/10 09:24:45;;;;;;;6.30;2.83;;;;;;;18.25;57.51;99435.69;5034457;28;20200;-49
2022/07/10 09:27:30;;;;;;;3.43;2.90;;;;;;;18.34;55.77;99441.69;5034704;28;20196;-49
2022/07/10 09:29:59;;;;;;;5.03;2.97;;;;;;;18.58;54.89;99447.72;5034032;28;20216;-49
2022/07/10 09:32:26;;;;;;;7.40;2.80;;;;;;;18.64;54.70;99444.34;5034139;28;20573;-49
2022/07/10 09:37:40;;;;;;;6.70;3.00;;;;;;;18.84;52.69;99454.34;5033166;28;20212;-48
2022/07/10 09:40:08;;;;;;;5.50;3.43;;;;;;;18.47;53.89;99442.88;5033858;28;20197;-49
2022/07/10 09:42:37;;;;;;;5.80;2.90;;;;;;;18.42;54.78;99444.25;5033809;28;20558;-49
2022/07/10 09:45:16;;;;;;;4.30;2.77;;;;;;;18.40;53.69;99443.59;5032958;28;20193;-49
2022/07/10 09:47:45;;;;;;;8.83;3.30;;;;;;;18.54;53.04;99446.44;5032604;28;20577;-49
2022/07/10 09:50:27;;;;;;;7.33;2.60;;;;;;;19.00;52.35;99435.66;5015831;28;20233;-49
2022/07/10 09:52:56;;;;;;;5.30;2.77;;;;;;;19.07;51.95;99440.22;5033566;28;20222;-48
2022/07/10 09:55:29;;;;;;;6.17;2.43;;;;;;;19.22;51.44;99446.25;5033532;28;20218;-49
2022/07/10 09:57:58;;;;;;;5.47;2.13;;;;;;;19.47;51.48;99443.25;5015728;28;20253;-49
2022/07/10 10:00:29;;;;;;;5.80;2.70;;;;;;;19.18;50.68;99451.13;5033596;28;20190;-49
2022/07/10 10:02:58;;;;;;;3.97;2.07;;;;;;;19.02;50.75;99444.25;5033465;28;20206;-49
2022/07/10 10:05:34;;;;;;;5.03;2.17;;;;;;;19.08;50.88;99445.31;5033495;28;20281;-49
2022/07/10 10:08:10;;;;;;;5.80;2.50;;;;;;;19.36;50.01;99435.81;5033113;28;20208;-49
2022/07/10 10:10:41;;;;;;;3.57;2.17;;;;;;;19.26;49.65;99444.06;5033321;28;20280;-49
2022/07/10 10:13:11;;;;;;;5.17;2.30;;;;;;;19.15;49.19;99437.44;5033436;28;20218;-49
2022/07/10 10:15:40;;;;;;;4.93;2.33;;;;;;;18.90;50.39;99432.47;5033209;28;20191;-48
2022/07/10 10:18:08;;;;;;;4.57;2.23;;;;;;;19.02;50.01;99425.72;5033086;28;20273;-49
2022/07/10 10:20:37;;;;;;;6.97;2.10;;;;;;;19.09;49.15;99440.81;5033163;28;20199;-49
2022/07/10 10:23:05;;;;;;;5.63;2.00;;;;;;;19.17;49.11;99428.31;5032420;28;20207;-48
2022/07/10 10:25:33;;;;;;;3.57;1.77;;;;;;;19.59;48.76;99435.66;5032718;28;20188;-49
2022/07/10 10:28:03;;;;;;;5.17;2.17;;;;;;;20.15;48.19;99423.47;5014709;28;20194;-49
2022/07/10 10:30:31;;;;;;;5.77;1.57;;;;;;;20.65;47.57;99429.47;5032064;28;20290;-49
2022/07/10 10:32:59;;;;;;;3.60;1.53;;;;;;;21.08;45.87;99428.44;5032246;28;20617;-49
2022/07/10 10:35:46;;;;;;;5.93;2.03;;;;;;;20.09;45.64;99432.19;5032963;28;20278;-49
2022/07/10 10:38:15;;;;;;;4.90;1.70;;;;;;;20.28;45.96;99426.19;5032699;28;20378;-49
2022/07/10 10:40:42;;;;;;;3.67;1.80;;;;;;;19.95;44.98;99432.09;5032581;28;20217;-49
2022/07/10 10:43:19;;;;;;;5.67;1.53;;;;;;;20.48;45.41;99428.97;5031937;28;20575;-49
2022/07/10 10:45:47;;;;;;;5.60;1.60;;;;;;;20.70;44.74;99430.69;5032392;28;20218;-49
2022/07/10 10:48:17;;;;;;;7.17;2.93;;;;;;;20.60;44.94;99423.94;5032388;28;20185;-49
2022/07/10 10:50:47;;;;;;;4.80;1.97;;;;;;;19.97;45.52;99422.13;5032318;28;20190;-49
2022/07/10 10:53:16;;;;;;;4.13;3.00;;;;;;;20.24;45.05;99419.66;5032283;28;20212;-49
2022/07/10 10:56:23;;;;;;;3.07;1.20;;;;;;;19.85;45.81;99429.75;5032633;28;20182;-49
2022/07/10 10:58:51;;;;;;;4.80;1.33;;;;;;;19.76;45.16;99421.09;5013674;28;20751;-49
2022/07/10 11:01:28;;;;;;;4.00;1.50;;;;;;;20.05;44.42;99426.47;5031335;28;20656;-49
2022/07/10 11:04:17;;;;;;;1.73;1.20;;;;;;;19.57;44.94;99425.22;5031323;28;20216;-49
2022/07/10 11:06:47;;;;;;;2.67;0.87;;;;;;;19.88;44.23;99413.47;5032362;28;20207;-49
2022/07/10 11:09:27;;;;;;;2.83;1.20;;;;;;;20.08;45.61;99407.53;5031926;28;20232;-50
2022/07/10 11:12:05;;;;;;;3.80;1.10;;;;;;;20.25;44.82;99404.56;5031654;28;20262;-49
2022/07/10 11:14:33;;;;;;;2.87;0.90;;;;;;;20.58;45.26;99398.59;5032341;28;20179;-49
2022/07/10 11:17:00;;;;;;;4.97;0.90;;;;;;;20.71;42.79;99396.00;5031478;28;20189;-49
2022/07/10 11:19:31;;;;;;;3.73;1.07;;;;;;;20.79;41.43;99411.78;5031481;28;20267;-49
2022/07/10 11:22:34;;;;;;;3.03;0.77;;;;;;;19.88;42.53;99405.53;5031376;28;20197;-49
2022/07/10 11:25:09;;;;;;;2.80;0.97;;;;;;;19.88;42.45;99413.47;5007004;28;20199;-49
2022/07/10 11:27:55;;;;;;;2.60;0.80;;;;;;;19.71;43.04;99409.47;5014286;28;20200;-49
2022/07/10 11:30:48;;;;;;;2.43;0.90;;;;;;;20.02;42.75;99403.00;5032008;28;20571;-49
2022/07/10 11:33:16;;;;;;;2.97;0.90;;;;;;;20.15;42.36;99402.25;5031506;28;20218;-49
2022/07/10 11:35:47;;;;;;;2.83;0.60;;;;;;;19.36;41.86;99399.59;5031442;28;20212;-49
2022/07/10 11:38:20;;;;;;;3.43;0.60;;;;;;;19.93;42.38;99393.56;5032271;28;20201;-49
2022/07/10 11:40:47;;;;;;;2.17;0.60;;;;;;;20.33;43.02;99373.41;5033629;28;20188;-49
2022/07/10 11:43:16;;;;;;;2.57;0.80;;;;;;;20.39;40.71;99382.41;5035837;28;20211;-50
2022/07/10 11:45:44;;;;;;;2.33;0.80;;;;;;;20.38;42.65;99382.63;5035633;28;20195;-49
2022/07/10 11:48:23;;;;;;;5.13;0.70;;;;;;;20.42;40.64;99395.28;5035342;28;20198;-49
2022/07/10 11:50:51;;;;;;;1.40;0.77;;;;;;;20.36;42.99;99382.78;5035209;28;20218;-49